sensor_id;sensor_type;location;lat;lon;timestamp;temperature;humidity
41310;DHT22;27057;51.438;-0.010;2023-02-07T00:01:28;4.40;99.90
41310;DHT22;27057;51.438;-0.010;2023-02-07T00:03:56;4.20;99.90
41310;DHT22;27057;51.438;-0.010;2023-02-07T00:06:30;4.30;99.90
41310;DHT22;27057;51.438;-0.010;2023-02-07T00:09:01;4.30;99.90
41310;DHT22;27057;51.438;-0.010;2023-02-07T00:11:29;4.20;99.90
41310;DHT22;27057;51.438;-0.010;2023-02-07T00:13:57;4.20;99.90
41310;DHT22;27057;51.438;-0.010;2023-02-07T00:18:54;4.00;99.90
41310;DHT22;27057;51.438;-0.010;2023-02-07T00:21:23;4.10;99.90
41310;DHT22;27057;51.438;-0.010;2023-02-07T00:23:52;4.10;99.90
41310;DHT22;27057;51.438;-0.010;2023-02-07T00:26:21;5.10;99.90
41310;DHT22;27057;51.438;-0.010;2023-02-07T00:28:50;4.00;99.90
41310;DHT22;27057;51.438;-0.010;2023-02-07T00:31:27;5.10;99.90
41310;DHT22;27057;51.438;-0.010;2023-02-07T00:33:56;4.20;99.90
41310;DHT22;27057;51.438;-0.010;2023-02-07T00:36:26;4.00;99.90
41310;DHT22;27057;51.438;-0.010;2023-02-07T00:38:56;4.10;99.90
41310;DHT22;27057;51.438;-0.010;2023-02-07T00:41:25;4.10;99.90
41310;DHT22;27057;51.438;-0.010;2023-02-07T00:43:53;4.80;99.90
41310;DHT22;27057;51.438;-0.010;2023-02-07T00:46:23;3.90;99.90
41310;DHT22;27057;51.438;-0.010;2023-02-07T00:48:53;4.00;99.90
41310;DHT22;27057;51.438;-0.010;2023-02-07T00:51:20;4.00;99.90
41310;DHT22;27057;51.438;-0.010;2023-02-07T00:53:48;3.90;99.90
41310;DHT22;27057;51.438;-0.010;2023-02-07T00:56:17;4.00;99.90
41310;DHT22;27057;51.438;-0.010;2023-02-07T00:58:44;3.90;99.90
41310;DHT22;27057;51.438;-0.010;2023-02-07T01:01:13;4.00;99.90
41310;DHT22;27057;51.438;-0.010;2023-02-07T01:03:40;3.80;99.90
41310;DHT22;27057;51.438;-0.010;2023-02-07T01:06:08;3.70;99.90
41310;DHT22;27057;51.438;-0.010;2023-02-07T01:11:07;3.70;99.90
41310;DHT22;27057;51.438;-0.010;2023-02-07T01:13:37;3.60;99.90
41310;DHT22;27057;51.438;-0.010;2023-02-07T01:16:04;4.70;99.90
41310;DHT22;27057;51.438;-0.010;2023-02-07T01:18:32;3.50;99.90
41310;DHT22;27057;51.438;-0.010;2023-02-07T01:21:01;4.30;99.90
41310;DHT22;27057;51.438;-0.010;2023-02-07T01:23:28;3.60;99.90
41310;DHT22;27057;51.438;-0.010;2023-02-07T01:25:56;3.70;99.90
41310;DHT22;27057;51.438;-0.010;2023-02-07T01:28:23;3.50;99.90
41310;DHT22;27057;51.438;-0.010;2023-02-07T01:30:50;3.50;99.90
41310;DHT22;27057;51.438;-0.010;2023-02-07T01:35:45;3.50;99.90
41310;DHT22;27057;51.438;-0.010;2023-02-07T01:38:13;3.30;99.90
41310;DHT22;27057;51.438;-0.010;2023-02-07T01:40:41;3.50;99.90
41310;DHT22;27057;51.438;-0.010;2023-02-07T01:43:17;3.50;99.90
41310;DHT22;27057;51.438;-0.010;2023-02-07T01:45:45;4.90;99.90
41310;DHT22;27057;51.438;-0.010;2023-02-07T01:48:17;3.60;99.90
41310;DHT22;27057;51.438;-0.010;2023-02-07T01:50:47;3.30;99.90
41310;DHT22;27057;51.438;-0.010;2023-02-07T01:53:17;3.70;99.90
41310;DHT22;27057;51.438;-0.010;2023-02-07T01:55:47;3.20;99.90
41310;DHT22;27057;51.438;-0.010;2023-02-07T01:58:16;3.20;99.90
41310;DHT22;27057;51.438;-0.010;2023-02-07T02:00:44;3.30;99.90
41310;DHT22;27057;51.438;-0.010;2023-02-07T02:03:12;3.10;99.90
41310;DHT22;27057;51.438;-0.010;2023-02-07T02:05:41;3.40;99.90
41310;DHT22;27057;51.438;-0.010;2023-02-07T02:08:09;3.20;99.90
41310;DHT22;27057;51.438;-0.010;2023-02-07T02:13:33;3.00;99.90
41310;DHT22;27057;51.438;-0.010;2023-02-07T02:16:13;3.90;99.90
41310;DHT22;27057;51.438;-0.010;2023-02-07T02:21:57;3.00;99.90
41310;DHT22;27057;51.438;-0.010;2023-02-07T02:30:28;2.90;99.90
41310;DHT22;27057;51.438;-0.010;2023-02-07T02:38:15;3.00;99.90
41310;DHT22;27057;51.438;-0.010;2023-02-07T02:41:02;2.90;99.90
41310;DHT22;27057;51.438;-0.010;2023-02-07T02:46:20;2.70;99.90
41310;DHT22;27057;51.438;-0.010;2023-02-07T02:48:49;2.70;99.90
41310;DHT22;27057;51.438;-0.010;2023-02-07T02:51:17;2.60;99.90
41310;DHT22;27057;51.438;-0.010;2023-02-07T02:53:55;2.50;99.90
41310;DHT22;27057;51.438;-0.010;2023-02-07T03:04:39;3.60;99.90
41310;DHT22;27057;51.438;-0.010;2023-02-07T03:21:36;2.40;99.90
41310;DHT22;27057;51.438;-0.010;2023-02-07T03:24:13;2.50;99.90
41310;DHT22;27057;51.438;-0.010;2023-02-07T03:26:44;2.30;99.90
41310;DHT22;27057;51.438;-0.010;2023-02-07T03:29:15;2.40;99.90
41310;DHT22;27057;51.438;-0.010;2023-02-07T03:31:47;2.50;99.90
41310;DHT22;27057;51.438;-0.010;2023-02-07T03:34:18;2.00;99.90
41310;DHT22;27057;51.438;-0.010;2023-02-07T03:39:24;2.20;99.90
41310;DHT22;27057;51.438;-0.010;2023-02-07T03:41:57;3.10;99.90
41310;DHT22;27057;51.438;-0.010;2023-02-07T03:44:27;2.30;99.90
41310;DHT22;27057;51.438;-0.010;2023-02-07T03:46:56;2.10;99.90
41310;DHT22;27057;51.438;-0.010;2023-02-07T03:49:23;2.00;99.90
41310;DHT22;27057;51.438;-0.010;2023-02-07T03:51:51;1.80;99.90
41310;DHT22;27057;51.438;-0.010;2023-02-07T03:54:18;1.70;99.90
41310;DHT22;27057;51.438;-0.010;2023-02-07T03:56:45;1.80;99.90
41310;DHT22;27057;51.438;-0.010;2023-02-07T03:59:12;1.80;99.90
41310;DHT22;27057;51.438;-0.010;2023-02-07T04:01:40;1.90;99.90
41310;DHT22;27057;51.438;-0.010;2023-02-07T04:04:09;1.90;99.90
41310;DHT22;27057;51.438;-0.010;2023-02-07T04:06:37;1.90;99.90
41310;DHT22;27057;51.438;-0.010;2023-02-07T04:09:04;1.80;99.90
41310;DHT22;27057;51.438;-0.010;2023-02-07T04:11:32;2.30;99.90
41310;DHT22;27057;51.438;-0.010;2023-02-07T04:13:59;2.60;99.90
41310;DHT22;27057;51.438;-0.010;2023-02-07T04:16:26;1.80;99.90
41310;DHT22;27057;51.438;-0.010;2023-02-07T04:21:21;2.20;99.90
41310;DHT22;27057;51.438;-0.010;2023-02-07T04:23:49;1.70;99.90
41310;DHT22;27057;51.438;-0.010;2023-02-07T04:26:16;3.00;99.90
41310;DHT22;27057;51.438;-0.010;2023-02-07T04:28:43;1.90;99.90
41310;DHT22;27057;51.438;-0.010;2023-02-07T04:31:11;2.00;99.90
41310;DHT22;27057;51.438;-0.010;2023-02-07T04:33:38;1.70;99.90
41310;DHT22;27057;51.438;-0.010;2023-02-07T04:36:06;1.80;99.90
41310;DHT22;27057;51.438;-0.010;2023-02-07T04:38:33;1.70;99.90
41310;DHT22;27057;51.438;-0.010;2023-02-07T04:41:02;1.90;99.90
41310;DHT22;27057;51.438;-0.010;2023-02-07T04:43:32;2.00;99.90
41310;DHT22;27057;51.438;-0.010;2023-02-07T04:46:00;1.80;99.90
41310;DHT22;27057;51.438;-0.010;2023-02-07T04:48:28;1.60;99.90
41310;DHT22;27057;51.438;-0.010;2023-02-07T04:50:55;1.50;99.90
41310;DHT22;27057;51.438;-0.010;2023-02-07T04:53:23;1.60;99.90
41310;DHT22;27057;51.438;-0.010;2023-02-07T04:55:52;1.70;99.90
41310;DHT22;27057;51.438;-0.010;2023-02-07T04:58:21;1.60;99.90
41310;DHT22;27057;51.438;-0.010;2023-02-07T05:00:49;1.50;99.90
41310;DHT22;27057;51.438;-0.010;2023-02-07T05:03:16;1.30;99.90
41310;DHT22;27057;51.438;-0.010;2023-02-07T05:05:44;1.50;99.90
41310;DHT22;27057;51.438;-0.010;2023-02-07T05:08:12;1.50;99.90
41310;DHT22;27057;51.438;-0.010;2023-02-07T05:10:40;1.50;99.90
41310;DHT22;27057;51.438;-0.010;2023-02-07T05:13:07;1.60;99.90
41310;DHT22;27057;51.438;-0.010;2023-02-07T05:15:35;1.40;99.90
41310;DHT22;27057;51.438;-0.010;2023-02-07T05:18:03;1.30;99.90
41310;DHT22;27057;51.438;-0.010;2023-02-07T05:20:31;1.70;99.90
41310;DHT22;27057;51.438;-0.010;2023-02-07T05:22:59;1.10;99.90
41310;DHT22;27057;51.438;-0.010;2023-02-07T05:25:27;3.70;99.90
41310;DHT22;27057;51.438;-0.010;2023-02-07T05:27:55;1.00;99.90
41310;DHT22;27057;51.438;-0.010;2023-02-07T05:30:22;2.30;99.90
41310;DHT22;27057;51.438;-0.010;2023-02-07T05:32:50;1.50;99.90
41310;DHT22;27057;51.438;-0.010;2023-02-07T05:35:40;1.30;99.90
41310;DHT22;27057;51.438;-0.010;2023-02-07T05:38:11;1.30;99.90
41310;DHT22;27057;51.438;-0.010;2023-02-07T05:40:40;1.40;99.90
41310;DHT22;27057;51.438;-0.010;2023-02-07T05:45:36;1.20;99.90
41310;DHT22;27057;51.438;-0.010;2023-02-07T05:48:04;1.20;99.90
41310;DHT22;27057;51.438;-0.010;2023-02-07T05:50:33;1.10;99.90
41310;DHT22;27057;51.438;-0.010;2023-02-07T05:53:06;1.10;99.90
41310;DHT22;27057;51.438;-0.010;2023-02-07T05:55:34;1.30;99.90
41310;DHT22;27057;51.438;-0.010;2023-02-07T05:58:01;2.30;99.90
41310;DHT22;27057;51.438;-0.010;2023-02-07T06:00:29;1.00;99.90
41310;DHT22;27057;51.438;-0.010;2023-02-07T06:05:24;1.10;99.90
41310;DHT22;27057;51.438;-0.010;2023-02-07T06:07:52;1.00;99.90
41310;DHT22;27057;51.438;-0.010;2023-02-07T06:10:19;1.10;99.90
41310;DHT22;27057;51.438;-0.010;2023-02-07T06:12:46;0.90;99.90
41310;DHT22;27057;51.438;-0.010;2023-02-07T06:15:14;0.90;99.90
41310;DHT22;27057;51.438;-0.010;2023-02-07T06:17:41;1.10;99.90
41310;DHT22;27057;51.438;-0.010;2023-02-07T06:20:09;1.10;99.90
41310;DHT22;27057;51.438;-0.010;2023-02-07T06:22:36;1.00;99.90
41310;DHT22;27057;51.438;-0.010;2023-02-07T06:25:04;1.20;99.90
41310;DHT22;27057;51.438;-0.010;2023-02-07T06:29:59;1.00;99.90
41310;DHT22;27057;51.438;-0.010;2023-02-07T06:32:26;0.90;99.90
41310;DHT22;27057;51.438;-0.010;2023-02-07T06:34:54;1.10;99.90
41310;DHT22;27057;51.438;-0.010;2023-02-07T06:37:21;1.20;99.90
41310;DHT22;27057;51.438;-0.010;2023-02-07T06:39:48;1.10;99.90
41310;DHT22;27057;51.438;-0.010;2023-02-07T06:42:15;0.80;99.90
41310;DHT22;27057;51.438;-0.010;2023-02-07T06:44:43;0.80;99.90
41310;DHT22;27057;51.438;-0.010;2023-02-07T06:47:10;1.00;99.90
41310;DHT22;27057;51.438;-0.010;2023-02-07T06:52:05;0.90;99.90
41310;DHT22;27057;51.438;-0.010;2023-02-07T06:54:32;0.70;99.90
41310;DHT22;27057;51.438;-0.010;2023-02-07T06:57:00;0.70;99.90
41310;DHT22;27057;51.438;-0.010;2023-02-07T06:59:28;0.70;99.90
41310;DHT22;27057;51.438;-0.010;2023-02-07T07:01:55;0.90;99.90
41310;DHT22;27057;51.438;-0.010;2023-02-07T07:04:22;0.80;99.90
41310;DHT22;27057;51.438;-0.010;2023-02-07T07:09:17;0.80;99.90
41310;DHT22;27057;51.438;-0.010;2023-02-07T07:11:45;0.70;99.90
41310;DHT22;27057;51.438;-0.010;2023-02-07T07:14:12;1.20;99.90
41310;DHT22;27057;51.438;-0.010;2023-02-07T07:16:40;0.60;99.90
41310;DHT22;27057;51.438;-0.010;2023-02-07T07:19:07;1.30;99.90
41310;DHT22;27057;51.438;-0.010;2023-02-07T07:21:35;1.00;99.90
41310;DHT22;27057;51.438;-0.010;2023-02-07T07:24:02;0.60;99.90
41310;DHT22;27057;51.438;-0.010;2023-02-07T07:29:14;0.70;99.90
41310;DHT22;27057;51.438;-0.010;2023-02-07T07:36:37;0.70;99.90
41310;DHT22;27057;51.438;-0.010;2023-02-07T07:44:00;0.80;99.90
41310;DHT22;27057;51.438;-0.010;2023-02-07T07:46:28;1.30;99.90
41310;DHT22;27057;51.438;-0.010;2023-02-07T07:48:56;1.00;99.90
41310;DHT22;27057;51.438;-0.010;2023-02-07T07:51:23;1.90;99.90
41310;DHT22;27057;51.438;-0.010;2023-02-07T07:53:51;1.10;99.90
41310;DHT22;27057;51.438;-0.010;2023-02-07T07:56:19;1.40;99.90
41310;DHT22;27057;51.438;-0.010;2023-02-07T07:58:46;1.20;99.90
41310;DHT22;27057;51.438;-0.010;2023-02-07T08:01:14;1.30;99.90
41310;DHT22;27057;51.438;-0.010;2023-02-07T08:03:42;1.30;99.90
41310;DHT22;27057;51.438;-0.010;2023-02-07T08:06:09;1.30;99.90
41310;DHT22;27057;51.438;-0.010;2023-02-07T08:11:06;1.50;99.90
41310;DHT22;27057;51.438;-0.010;2023-02-07T08:13:36;1.60;99.90
41310;DHT22;27057;51.438;-0.010;2023-02-07T08:16:05;1.50;99.90
41310;DHT22;27057;51.438;-0.010;2023-02-07T08:21:05;1.60;99.90
41310;DHT22;27057;51.438;-0.010;2023-02-07T08:23:33;1.60;99.90
41310;DHT22;27057;51.438;-0.010;2023-02-07T08:26:01;1.80;99.90
41310;DHT22;27057;51.438;-0.010;2023-02-07T08:28:30;1.80;99.90
41310;DHT22;27057;51.438;-0.010;2023-02-07T08:31:01;1.80;99.90
41310;DHT22;27057;51.438;-0.010;2023-02-07T08:33:29;1.90;99.90
41310;DHT22;27057;51.438;-0.010;2023-02-07T08:35:58;2.00;99.90
41310;DHT22;27057;51.438;-0.010;2023-02-07T08:38:26;2.10;99.90
41310;DHT22;27057;51.438;-0.010;2023-02-07T08:40:54;1.90;99.90
41310;DHT22;27057;51.438;-0.010;2023-02-07T08:43:21;2.00;99.90
41310;DHT22;27057;51.438;-0.010;2023-02-07T08:45:48;1.80;99.90
41310;DHT22;27057;51.438;-0.010;2023-02-07T08:48:16;2.10;99.90
41310;DHT22;27057;51.438;-0.010;2023-02-07T08:50:44;2.40;99.90
41310;DHT22;27057;51.438;-0.010;2023-02-07T08:53:11;2.00;99.90
41310;DHT22;27057;51.438;-0.010;2023-02-07T08:55:39;2.10;99.90
41310;DHT22;27057;51.438;-0.010;2023-02-07T08:58:08;1.90;99.90
41310;DHT22;27057;51.438;-0.010;2023-02-07T09:00:35;1.90;99.90
41310;DHT22;27057;51.438;-0.010;2023-02-07T09:03:04;1.80;99.90
41310;DHT22;27057;51.438;-0.010;2023-02-07T09:08:00;2.00;99.90
41310;DHT22;27057;51.438;-0.010;2023-02-07T09:10:28;2.10;99.90
41310;DHT22;27057;51.438;-0.010;2023-02-07T09:12:55;1.90;99.90
41310;DHT22;27057;51.438;-0.010;2023-02-07T09:17:52;2.30;99.90
41310;DHT22;27057;51.438;-0.010;2023-02-07T09:20:19;2.20;99.90
41310;DHT22;27057;51.438;-0.010;2023-02-07T09:22:46;2.60;99.90
41310;DHT22;27057;51.438;-0.010;2023-02-07T09:25:32;2.40;99.90
41310;DHT22;27057;51.438;-0.010;2023-02-07T09:28:00;2.60;99.90
41310;DHT22;27057;51.438;-0.010;2023-02-07T09:30:27;2.60;99.90
41310;DHT22;27057;51.438;-0.010;2023-02-07T09:32:56;2.80;99.90
41310;DHT22;27057;51.438;-0.010;2023-02-07T09:35:24;2.80;99.90
41310;DHT22;27057;51.438;-0.010;2023-02-07T09:37:52;2.90;99.90
41310;DHT22;27057;51.438;-0.010;2023-02-07T09:40:21;2.90;99.90
41310;DHT22;27057;51.438;-0.010;2023-02-07T09:43:02;3.20;99.90
41310;DHT22;27057;51.438;-0.010;2023-02-07T09:45:38;3.00;99.90
41310;DHT22;27057;51.438;-0.010;2023-02-07T09:48:15;3.40;99.90
41310;DHT22;27057;51.438;-0.010;2023-02-07T09:50:51;3.00;99.90
41310;DHT22;27057;51.438;-0.010;2023-02-07T09:53:25;3.20;99.90
41310;DHT22;27057;51.438;-0.010;2023-02-07T09:55:57;3.30;99.90
41310;DHT22;27057;51.438;-0.010;2023-02-07T09:58:45;3.30;99.90
41310;DHT22;27057;51.438;-0.010;2023-02-07T10:01:17;3.30;99.90
41310;DHT22;27057;51.438;-0.010;2023-02-07T10:04:13;3.40;99.90
41310;DHT22;27057;51.438;-0.010;2023-02-07T10:06:46;3.40;99.90
41310;DHT22;27057;51.438;-0.010;2023-02-07T10:09:16;3.40;99.90
41310;DHT22;27057;51.438;-0.010;2023-02-07T10:17:48;3.60;99.90
41310;DHT22;27057;51.438;-0.010;2023-02-07T10:23:00;3.70;99.90
41310;DHT22;27057;51.438;-0.010;2023-02-07T10:28:33;3.80;99.90
41310;DHT22;27057;51.438;-0.010;2023-02-07T10:31:07;3.90;99.90
41310;DHT22;27057;51.438;-0.010;2023-02-07T10:33:39;4.00;99.90
41310;DHT22;27057;51.438;-0.010;2023-02-07T10:36:13;4.00;99.90
41310;DHT22;27057;51.438;-0.010;2023-02-07T10:38:50;4.20;99.90
41310;DHT22;27057;51.438;-0.010;2023-02-07T10:41:36;4.10;99.90
41310;DHT22;27057;51.438;-0.010;2023-02-07T10:44:05;4.20;99.90
41310;DHT22;27057;51.438;-0.010;2023-02-07T10:46:35;4.50;99.90
41310;DHT22;27057;51.438;-0.010;2023-02-07T10:49:03;4.50;99.90
41310;DHT22;27057;51.438;-0.010;2023-02-07T10:56:30;4.90;99.90
41310;DHT22;27057;51.438;-0.010;2023-02-07T10:58:59;5.00;99.90
41310;DHT22;27057;51.438;-0.010;2023-02-07T11:01:29;5.10;99.90
41310;DHT22;27057;51.438;-0.010;2023-02-07T11:03:58;5.20;99.90
41310;DHT22;27057;51.438;-0.010;2023-02-07T11:06:29;5.30;99.90
41310;DHT22;27057;51.438;-0.010;2023-02-07T11:09:27;5.20;99.90
41310;DHT22;27057;51.438;-0.010;2023-02-07T11:11:54;5.30;99.90
41310;DHT22;27057;51.438;-0.010;2023-02-07T11:14:24;6.00;99.90
41310;DHT22;27057;51.438;-0.010;2023-02-07T11:16:54;5.60;99.90
41310;DHT22;27057;51.438;-0.010;2023-02-07T11:19:25;5.50;99.90
41310;DHT22;27057;51.438;-0.010;2023-02-07T11:24:36;5.80;99.90
41310;DHT22;27057;51.438;-0.010;2023-02-07T11:27:11;6.30;99.90
41310;DHT22;27057;51.438;-0.010;2023-02-07T11:29:50;6.20;99.90
41310;DHT22;27057;51.438;-0.010;2023-02-07T11:32:18;6.60;99.90
41310;DHT22;27057;51.438;-0.010;2023-02-07T11:34:52;7.00;99.90
41310;DHT22;27057;51.438;-0.010;2023-02-07T11:37:32;7.20;99.90
41310;DHT22;27057;51.438;-0.010;2023-02-07T11:40:23;7.10;99.90
41310;DHT22;27057;51.438;-0.010;2023-02-07T11:45:31;7.90;99.90
41310;DHT22;27057;51.438;-0.010;2023-02-07T11:48:01;8.60;99.90
41310;DHT22;27057;51.438;-0.010;2023-02-07T11:50:35;8.50;99.90
41310;DHT22;27057;51.438;-0.010;2023-02-07T11:53:07;8.90;99.90
41310;DHT22;27057;51.438;-0.010;2023-02-07T11:55:47;9.40;99.90
41310;DHT22;27057;51.438;-0.010;2023-02-07T11:58:31;11.10;99.90
41310;DHT22;27057;51.438;-0.010;2023-02-07T12:01:01;10.00;99.90
41310;DHT22;27057;51.438;-0.010;2023-02-07T12:03:54;10.40;99.90
41310;DHT22;27057;51.438;-0.010;2023-02-07T12:06:37;10.60;99.90
41310;DHT22;27057;51.438;-0.010;2023-02-07T12:10:02;11.10;99.90
41310;DHT22;27057;51.438;-0.010;2023-02-07T12:12:13;11.20;99.90
41310;DHT22;27057;51.438;-0.010;2023-02-07T12:15:00;11.50;99.90
41310;DHT22;27057;51.438;-0.010;2023-02-07T12:20:49;12.00;99.90
41310;DHT22;27057;51.438;-0.010;2023-02-07T12:26:28;12.50;99.90
41310;DHT22;27057;51.438;-0.010;2023-02-07T12:34:52;13.30;99.90
41310;DHT22;27057;51.438;-0.010;2023-02-07T12:40:27;13.70;99.90
41310;DHT22;27057;51.438;-0.010;2023-02-07T12:45:38;14.10;99.90
41310;DHT22;27057;51.438;-0.010;2023-02-07T12:48:16;14.40;99.90
41310;DHT22;27057;51.438;-0.010;2023-02-07T13:02:25;15.20;99.90
41310;DHT22;27057;51.438;-0.010;2023-02-07T13:10:46;15.30;99.90
41310;DHT22;27057;51.438;-0.010;2023-02-07T13:21:43;15.10;99.90
41310;DHT22;27057;51.438;-0.010;2023-02-07T13:24:16;15.40;99.90
41310;DHT22;27057;51.438;-0.010;2023-02-07T13:26:50;15.60;99.90
41310;DHT22;27057;51.438;-0.010;2023-02-07T13:29:21;15.50;99.90
41310;DHT22;27057;51.438;-0.010;2023-02-07T13:31:55;15.90;99.90
41310;DHT22;27057;51.438;-0.010;2023-02-07T13:34:26;16.20;99.90
41310;DHT22;27057;51.438;-0.010;2023-02-07T13:36:55;16.50;99.90
41310;DHT22;27057;51.438;-0.010;2023-02-07T13:42:40;16.60;99.90
41310;DHT22;27057;51.438;-0.010;2023-02-07T13:50:46;16.80;99.90
41310;DHT22;27057;51.438;-0.010;2023-02-07T13:56:13;17.10;99.90
41310;DHT22;27057;51.438;-0.010;2023-02-07T13:59:00;17.30;99.90
41310;DHT22;27057;51.438;-0.010;2023-02-07T14:01:53;17.50;99.90
41310;DHT22;27057;51.438;-0.010;2023-02-07T14:04:21;17.70;99.90
41310;DHT22;27057;51.438;-0.010;2023-02-07T14:09:32;17.80;99.90
41310;DHT22;27057;51.438;-0.010;2023-02-07T14:12:04;17.80;99.90
41310;DHT22;27057;51.438;-0.010;2023-02-07T14:14:38;17.90;99.90
41310;DHT22;27057;51.438;-0.010;2023-02-07T14:17:14;18.10;99.90
41310;DHT22;27057;51.438;-0.010;2023-02-07T14:20:03;18.30;99.90
41310;DHT22;27057;51.438;-0.010;2023-02-07T14:25:36;18.40;99.90
41310;DHT22;27057;51.438;-0.010;2023-02-07T14:30:36;18.40;99.90
41310;DHT22;27057;51.438;-0.010;2023-02-07T14:38:43;18.70;99.90
41310;DHT22;27057;51.438;-0.010;2023-02-07T14:41:30;18.70;99.90
41310;DHT22;27057;51.438;-0.010;2023-02-07T14:44:00;18.60;99.90
41310;DHT22;27057;51.438;-0.010;2023-02-07T14:46:51;18.50;99.90
41310;DHT22;27057;51.438;-0.010;2023-02-07T14:49:37;18.50;99.90
41310;DHT22;27057;51.438;-0.010;2023-02-07T14:52:14;19.10;99.90
41310;DHT22;27057;51.438;-0.010;2023-02-07T14:54:49;18.30;99.20
41310;DHT22;27057;51.438;-0.010;2023-02-07T14:57:43;18.20;99.90
41310;DHT22;27057;51.438;-0.010;2023-02-07T15:02:49;18.10;99.90
41310;DHT22;27057;51.438;-0.010;2023-02-07T15:05:24;18.10;99.90
41310;DHT22;27057;51.438;-0.010;2023-02-07T15:10:38;18.30;99.90
41310;DHT22;27057;51.438;-0.010;2023-02-07T15:16:11;18.20;99.60
41310;DHT22;27057;51.438;-0.010;2023-02-07T15:19:00;18.10;99.50
41310;DHT22;27057;51.438;-0.010;2023-02-07T15:21:54;18.00;99.00
41310;DHT22;27057;51.438;-0.010;2023-02-07T15:27:17;17.30;99.50
41310;DHT22;27057;51.438;-0.010;2023-02-07T15:29:54;17.30;99.90
41310;DHT22;27057;51.438;-0.010;2023-02-07T15:32:27;16.90;99.60
41310;DHT22;27057;51.438;-0.010;2023-02-07T15:34:57;16.80;99.90
41310;DHT22;27057;51.438;-0.010;2023-02-07T15:37:25;16.90;99.90
41310;DHT22;27057;51.438;-0.010;2023-02-07T15:39:55;16.80;99.90
41310;DHT22;27057;51.438;-0.010;2023-02-07T15:42:23;17.00;99.90
41310;DHT22;27057;51.438;-0.010;2023-02-07T15:44:52;16.70;99.90
41310;DHT22;27057;51.438;-0.010;2023-02-07T15:47:33;16.70;99.90
41310;DHT22;27057;51.438;-0.010;2023-02-07T15:50:05;16.40;99.90
41310;DHT22;27057;51.438;-0.010;2023-02-07T15:52:39;16.50;99.90
41310;DHT22;27057;51.438;-0.010;2023-02-07T15:55:19;16.40;99.90
41310;DHT22;27057;51.438;-0.010;2023-02-07T15:57:49;16.40;99.90
41310;DHT22;27057;51.438;-0.010;2023-02-07T16:00:21;16.20;99.90
41310;DHT22;27057;51.438;-0.010;2023-02-07T16:02:58;16.20;99.90
41310;DHT22;27057;51.438;-0.010;2023-02-07T16:05:29;16.10;99.90
41310;DHT22;27057;51.438;-0.010;2023-02-07T16:07:58;15.70;99.90
41310;DHT22;27057;51.438;-0.010;2023-02-07T16:10:35;15.60;99.90
41310;DHT22;27057;51.438;-0.010;2023-02-07T16:13:10;15.40;99.90
41310;DHT22;27057;51.438;-0.010;2023-02-07T16:15:50;15.40;99.90
41310;DHT22;27057;51.438;-0.010;2023-02-07T16:21:04;15.30;99.90
41310;DHT22;27057;51.438;-0.010;2023-02-07T16:23:33;15.10;99.90
41310;DHT22;27057;51.438;-0.010;2023-02-07T16:26:01;14.90;99.90
41310;DHT22;27057;51.438;-0.010;2023-02-07T16:28:31;14.90;99.90
41310;DHT22;27057;51.438;-0.010;2023-02-07T16:30:58;14.50;99.90
41310;DHT22;27057;51.438;-0.010;2023-02-07T16:33:26;14.20;99.90
41310;DHT22;27057;51.438;-0.010;2023-02-07T16:35:53;13.90;99.90
41310;DHT22;27057;51.438;-0.010;2023-02-07T16:38:21;13.50;99.90
41310;DHT22;27057;51.438;-0.010;2023-02-07T16:40:48;13.10;99.90
41310;DHT22;27057;51.438;-0.010;2023-02-07T16:43:34;12.80;99.90
41310;DHT22;27057;51.438;-0.010;2023-02-07T16:46:02;12.40;99.90
41310;DHT22;27057;51.438;-0.010;2023-02-07T16:48:30;11.40;99.90
41310;DHT22;27057;51.438;-0.010;2023-02-07T16:50:58;12.30;99.90
41310;DHT22;27057;51.438;-0.010;2023-02-07T16:53:27;11.40;99.90
41310;DHT22;27057;51.438;-0.010;2023-02-07T16:55:56;11.10;99.90
41310;DHT22;27057;51.438;-0.010;2023-02-07T16:58:26;10.90;99.90
41310;DHT22;27057;51.438;-0.010;2023-02-07T17:00:54;11.20;99.90
41310;DHT22;27057;51.438;-0.010;2023-02-07T17:05:50;9.80;99.90
41310;DHT22;27057;51.438;-0.010;2023-02-07T17:08:19;9.60;99.90
41310;DHT22;27057;51.438;-0.010;2023-02-07T17:10:58;9.90;99.90
41310;DHT22;27057;51.438;-0.010;2023-02-07T17:13:26;9.10;99.90
41310;DHT22;27057;51.438;-0.010;2023-02-07T17:15:53;9.10;99.90
41310;DHT22;27057;51.438;-0.010;2023-02-07T17:18:21;8.80;99.90
41310;DHT22;27057;51.438;-0.010;2023-02-07T17:20:48;8.70;99.90
41310;DHT22;27057;51.438;-0.010;2023-02-07T17:25:46;8.50;99.90
41310;DHT22;27057;51.438;-0.010;2023-02-07T17:28:14;9.40;99.90
41310;DHT22;27057;51.438;-0.010;2023-02-07T17:30:44;8.40;99.90
41310;DHT22;27057;51.438;-0.010;2023-02-07T17:33:12;8.10;99.90
41310;DHT22;27057;51.438;-0.010;2023-02-07T17:35:39;8.10;99.90
41310;DHT22;27057;51.438;-0.010;2023-02-07T17:38:07;7.90;99.90
41310;DHT22;27057;51.438;-0.010;2023-02-07T17:40:37;8.10;99.90
41310;DHT22;27057;51.438;-0.010;2023-02-07T17:43:08;8.30;99.90
41310;DHT22;27057;51.438;-0.010;2023-02-07T17:45:36;7.80;99.90
41310;DHT22;27057;51.438;-0.010;2023-02-07T17:48:04;7.60;99.90
41310;DHT22;27057;51.438;-0.010;2023-02-07T17:50:34;7.60;99.90
41310;DHT22;27057;51.438;-0.010;2023-02-07T17:53:03;7.50;99.90
41310;DHT22;27057;51.438;-0.010;2023-02-07T17:55:31;7.50;99.90
41310;DHT22;27057;51.438;-0.010;2023-02-07T17:57:59;7.20;99.90
41310;DHT22;27057;51.438;-0.010;2023-02-07T18:00:31;7.40;99.90
41310;DHT22;27057;51.438;-0.010;2023-02-07T18:02:58;7.40;99.90
41310;DHT22;27057;51.438;-0.010;2023-02-07T18:05:26;7.00;99.90
41310;DHT22;27057;51.438;-0.010;2023-02-07T18:07:53;7.30;99.90
41310;DHT22;27057;51.438;-0.010;2023-02-07T18:10:24;7.10;99.90
41310;DHT22;27057;51.438;-0.010;2023-02-07T18:12:52;7.10;99.90
41310;DHT22;27057;51.438;-0.010;2023-02-07T18:15:20;7.00;99.90
41310;DHT22;27057;51.438;-0.010;2023-02-07T18:17:48;7.00;99.90
41310;DHT22;27057;51.438;-0.010;2023-02-07T18:20:42;6.90;99.90
41310;DHT22;27057;51.438;-0.010;2023-02-07T18:23:10;6.90;99.90
41310;DHT22;27057;51.438;-0.010;2023-02-07T18:25:39;7.80;99.90
41310;DHT22;27057;51.438;-0.010;2023-02-07T18:28:06;6.60;99.90
41310;DHT22;27057;51.438;-0.010;2023-02-07T18:30:34;6.60;99.90
41310;DHT22;27057;51.438;-0.010;2023-02-07T18:33:01;6.40;99.90
41310;DHT22;27057;51.438;-0.010;2023-02-07T18:35:29;6.60;99.90
41310;DHT22;27057;51.438;-0.010;2023-02-07T18:37:56;6.60;99.90
41310;DHT22;27057;51.438;-0.010;2023-02-07T18:40:23;6.30;99.90
41310;DHT22;27057;51.438;-0.010;2023-02-07T18:42:51;6.30;99.90
41310;DHT22;27057;51.438;-0.010;2023-02-07T18:45:18;6.20;99.90
41310;DHT22;27057;51.438;-0.010;2023-02-07T18:47:46;6.40;99.90
41310;DHT22;27057;51.438;-0.010;2023-02-07T18:50:15;7.30;99.90
41310;DHT22;27057;51.438;-0.010;2023-02-07T18:52:46;6.30;99.90
41310;DHT22;27057;51.438;-0.010;2023-02-07T18:55:13;6.00;99.90
41310;DHT22;27057;51.438;-0.010;2023-02-07T18:57:40;6.00;99.90
41310;DHT22;27057;51.438;-0.010;2023-02-07T19:00:08;6.00;99.90
41310;DHT22;27057;51.438;-0.010;2023-02-07T19:02:36;6.10;99.90
41310;DHT22;27057;51.438;-0.010;2023-02-07T19:05:03;6.50;99.90
41310;DHT22;27057;51.438;-0.010;2023-02-07T19:07:31;6.10;99.90
41310;DHT22;27057;51.438;-0.010;2023-02-07T19:09:59;7.60;99.90